EST,Max TemperatureF,Mean TemperatureF,Min TemperatureF,Max Dew PointF,MeanDew PointF,Min DewpointF,Max Humidity, Mean Humidity, Min Humidity, Max Sea Level PressureIn, Mean Sea Level PressureIn, Min Sea Level PressureIn, Max VisibilityMiles, Mean VisibilityMiles, Min VisibilityMiles, Max Wind SpeedMPH, Mean Wind SpeedMPH, Max Gust SpeedMPH,PrecipitationIn, CloudCover, Events, WindDirDegrees
2013-2-1,32,25,18,14,5,1,61,40,29,30.06,29.77,29.53,10,10,10,21,14,31,0.00,2,,274
2013-2-2,27,20,14,9,4,0,62,46,30,30.22,30.12,30.04,10,10,10,12,7,,0.00,5,,231
2013-2-3,37,28,19,19,15,10,89,67,34,30.04,29.90,29.70,10,8,2,13,6,,0.00,8,Snow,337
2013-2-4,30,25,19,14,5,-2,72,45,28,29.89,29.76,29.69,10,10,10,21,11,32,0.00,3,,271
2013-2-5,27,20,12,14,4,0,71,50,33,30.03,29.97,29.92,10,10,8,8,5,,0.00,5,Snow,240
2013-2-6,37,29,20,24,15,-9,87,64,26,30.30,30.03,29.93,10,9,3,16,6,24,0.00,5,Snow,294
2013-2-7,26,20,14,8,-6,-11,52,31,20,30.53,30.46,30.31,10,10,10,14,9,20,0.00,5,,304
2013-2-8,23,18,14,16,12,7,87,80,53,30.51,30.24,29.71,10,2,0,28,11,41,0.44,8,Fog-Snow,17
2013-2-9,22,18,13,14,10,0,86,72,55,30.16,29.83,29.60,10,4,0,34,25,51,0.48,7,Fog-Snow,332
2013-2-10,36,22,7,9,0,-4,72,43,22,30.37,30.31,30.17,10,10,10,10,6,,0.00,1,,277
2013-2-11,37,25,13,37,25,7,100,90,69,30.34,29.93,29.60,10,3,0,14,3,23,0.30,8,Fog-Rain-Snow,311
2013-2-12,43,38,32,34,28,24,99,70,47,29.82,29.67,29.57,10,10,5,17,9,25,0.00,5,,253
2013-2-13,41,34,27,24,21,19,78,61,42,29.85,29.78,29.72,10,10,10,10,6,,0.00,3,,274
2013-2-14,40,34,27,26,21,16,86,62,39,29.98,29.87,29.73,10,10,10,10,5,,0.00,4,,310
2013-2-15,48,36,23,33,27,20,94,71,46,29.98,29.94,29.88,10,9,6,13,4,,0.00,3,,198
2013-2-16,38,34,29,31,26,14,94,76,50,29.94,29.89,29.72,10,7,1,14,6,20,0.03,8,Snow,318
2013-2-17,29,22,15,17,9,0,86,63,37,29.69,29.45,29.30,10,6,0,32,19,43,0.09,8,Fog-Snow,303
2013-2-18,29,21,13,1,-2,-7,53,37,21,30.11,29.88,29.59,10,10,8,30,21,45,0.00,2,,276
2013-2-19,40,30,21,40,21,-2,100,66,30,30.13,29.90,29.55,10,8,0,17,8,,0.32,7,Fog-Rain,158
2013-2-20,38,32,26,38,21,12,100,64,47,29.73,29.59,29.50,10,9,0,20,11,30,0.00,6,Fog,265
2013-2-21,28,25,22,14,10,6,67,53,44,30.17,29.86,29.71,10,10,10,21,14,26,0.00,4,,290
2013-2-22,37,28,19,24,18,14,81,63,40,30.39,30.33,30.22,10,10,10,12,6,,0.00,4,,325
2013-2-23,37,32,28,36,29,23,100,82,69,30.33,30.16,29.96,10,8,2,13,3,,0.03,8,Rain-Snow,122
2013-2-24,36,32,29,36,32,28,100,96,93,29.94,29.81,29.73,5,2,0,14,9,20,0.36,8,Fog-Rain-Snow,18
2013-2-25,39,32,26,31,28,25,99,85,64,30.24,30.10,29.91,10,9,3,13,5,,0.01,6,Snow,314
2013-2-26,39,34,28,34,30,25,100,83,56,30.35,30.30,30.20,10,8,0,12,2,,0.00,7,Fog,67
2013-2-27,41,37,33,38,34,28,100,89,67,30.19,29.89,29.57,10,4,1,26,15,36,1.14,8,Rain-Snow,69
2013-2-28,43,38,33,36,33,31,97,86,68,29.62,29.57,29.53,10,9,2,17,10,24,0.00,7,Rain,337